Time,TemperatureF,DewpointF,PressureIn,WindDirection,WindDirectionDegrees,WindSpeedMPH,WindSpeedGustMPH,Humidity,HourlyPrecipIn,Conditions,Clouds,dailyrainin,SolarRadiationWatts/m^2,SoftwareType,DateUTC
2013-04-13 00:03:00,31.0,29.0,-100.00,NW,304,1.0,3.0,94,0.00,,,0.18,0.000000,,2013-04-13 04:03:00,
2013-04-13 00:10:00,31.0,30.0,-100.00,SW,220,1.0,3.0,96,0.00,,,0.18,0.000000,,2013-04-13 04:10:00,
2013-04-13 00:33:00,31.0,30.0,-100.00,SW,220,1.0,3.0,96,0.00,,,0.18,0.000000,,2013-04-13 04:33:00,
2013-04-13 00:42:00,31.0,30.0,-100.00,SW,220,1.0,3.0,96,0.00,,,0.18,0.000000,,2013-04-13 04:42:00,
2013-04-13 00:53:00,31.0,30.0,-100.00,SW,220,1.0,3.0,96,0.00,,,0.18,0.000000,,2013-04-13 04:53:00,
2013-04-13 01:03:00,31.0,30.0,-100.00,SW,220,1.0,3.0,96,0.00,,,0.18,0.000000,,2013-04-13 05:03:00,
2013-04-13 01:10:00,31.0,31.0,-100.00,NNW,336,1.0,2.0,98,0.00,,,0.18,0.000000,,2013-04-13 05:10:00,
2013-04-13 01:32:00,31.0,31.0,-100.00,NNW,336,1.0,2.0,98,0.00,,,0.18,0.000000,,2013-04-13 05:32:00,
2013-04-13 01:43:00,31.0,31.0,-100.00,NNW,336,1.0,2.0,98,0.00,,,0.18,0.000000,,2013-04-13 05:43:00,
2013-04-13 01:53:00,31.0,31.0,-100.00,NNW,336,1.0,2.0,98,0.00,,,0.18,0.000000,,2013-04-13 05:53:00,
2013-04-13 02:02:00,31.0,31.0,-100.00,NNW,336,1.0,2.0,98,0.00,,,0.18,0.000000,,2013-04-13 06:02:00,
2013-04-13 02:10:00,31.0,31.0,-100.00,NNW,337,2.0,4.0,100,0.00,,,0.18,0.000000,,2013-04-13 06:10:00,
2013-04-13 02:36:00,31.0,31.0,-100.00,NNW,337,2.0,4.0,100,0.00,,,0.18,0.000000,,2013-04-13 06:36:00,
2013-04-13 02:49:00,31.0,31.0,-100.00,NNW,337,2.0,4.0,100,0.00,,,0.18,0.000000,,2013-04-13 06:49:00,
2013-04-13 02:56:00,31.0,31.0,-100.00,NNW,337,2.0,4.0,100,0.00,,,0.18,0.000000,,2013-04-13 06:56:00,
2013-04-13 03:10:00,31.0,31.0,-100.00,WNW,303,1.0,4.0,100,0.00,,,0.18,0.000000,,2013-04-13 07:10:00,
2013-04-13 03:37:00,31.0,31.0,-100.00,WNW,303,1.0,4.0,100,0.00,,,0.18,0.000000,,2013-04-13 07:37:00,
2013-04-13 03:46:00,31.0,31.0,-100.00,WNW,303,1.0,4.0,100,0.00,,,0.18,0.000000,,2013-04-13 07:46:00,
2013-04-13 03:58:00,31.0,31.0,-100.00,WNW,303,1.0,4.0,100,0.00,,,0.18,0.000000,,2013-04-13 07:58:00,
2013-04-13 04:07:00,31.0,31.0,-100.00,WNW,303,1.0,4.0,100,0.00,,,0.18,0.000000,,2013-04-13 08:07:00,
2013-04-13 04:10:00,31.0,31.0,-100.00,West,272,1.0,4.0,100,0.00,,,0.18,0.000000,,2013-04-13 08:10:00,
2013-04-13 04:47:00,31.0,31.0,-100.00,West,272,1.0,4.0,100,0.00,,,0.18,0.000000,,2013-04-13 08:47:00,
2013-04-13 04:55:00,31.0,31.0,-100.00,West,272,1.0,4.0,100,0.00,,,0.18,0.000000,,2013-04-13 08:55:00,
2013-04-13 05:06:00,31.0,31.0,-100.00,West,272,1.0,4.0,100,0.00,,,0.18,0.000000,,2013-04-13 09:06:00,
2013-04-13 05:10:00,30.0,30.0,-100.00,WSW,247,1.0,2.0,100,0.00,,,0.18,0.000000,,2013-04-13 09:10:00,
2013-04-13 05:53:00,30.0,30.0,-100.00,WSW,247,1.0,2.0,100,0.00,,,0.18,0.000000,,2013-04-13 09:53:00,
2013-04-13 06:05:00,30.0,30.0,-100.00,WSW,247,1.0,2.0,100,0.00,,,0.18,0.000000,,2013-04-13 10:05:00,
2013-04-13 06:10:00,30.0,30.0,-100.00,SE,133,1.0,1.0,100,0.00,,,0.18,0.000000,,2013-04-13 10:10:00,
2013-04-13 06:38:00,30.0,30.0,-100.00,SE,133,1.0,1.0,100,0.00,,,0.18,0.000000,,2013-04-13 10:38:00,
2013-04-13 06:51:00,30.0,30.0,-100.00,SE,133,1.0,1.0,100,0.00,,,0.18,0.000000,,2013-04-13 10:51:00,
2013-04-13 06:56:00,30.0,30.0,-100.00,SE,133,1.0,1.0,100,0.00,,,0.18,0.000000,,2013-04-13 10:56:00,
2013-04-13 07:08:00,30.0,30.0,-100.00,SE,133,1.0,1.0,100,0.00,,,0.18,0.000000,,2013-04-13 11:08:00,
2013-04-13 07:10:00,31.0,31.0,-100.00,ENE,74,0.0,0.0,100,0.00,,,0.18,3.000000,,2013-04-13 11:10:00,
2013-04-13 07:35:00,31.0,31.0,-100.00,ENE,74,0.0,0.0,100,0.00,,,0.18,3.000000,,2013-04-13 11:35:00,
2013-04-13 07:46:00,31.0,31.0,-100.00,ENE,74,0.0,0.0,100,0.00,,,0.18,3.000000,,2013-04-13 11:46:00,
2013-04-13 07:54:00,31.0,31.0,-100.00,ENE,74,0.0,0.0,100,0.00,,,0.18,3.000000,,2013-04-13 11:54:00,
2013-04-13 08:08:00,31.0,31.0,-100.00,ENE,74,0.0,0.0,100,0.00,,,0.18,3.000000,,2013-04-13 12:08:00,
2013-04-13 08:10:00,32.0,31.0,-100.00,East,89,0.0,2.0,95,0.00,,,0.18,15.000000,,2013-04-13 12:10:00,
2013-04-13 08:37:00,32.0,31.0,-100.00,East,89,0.0,2.0,95,0.00,,,0.18,15.000000,,2013-04-13 12:37:00,
2013-04-13 08:49:00,32.0,31.0,-100.00,East,89,0.0,2.0,95,0.00,,,0.18,15.000000,,2013-04-13 12:49:00,
2013-04-13 09:08:00,32.0,31.0,-100.00,East,89,0.0,2.0,95,0.00,,,0.18,15.000000,,2013-04-13 13:08:00,
2013-04-13 09:10:00,34.0,32.0,-100.00,SSE,160,1.0,2.0,91,0.00,,,0.18,25.000000,,2013-04-13 13:10:00,
2013-04-13 09:37:00,34.0,32.0,-100.00,SSE,160,1.0,2.0,91,0.00,,,0.18,25.000000,,2013-04-13 13:37:00,
2013-04-13 09:49:00,34.0,32.0,-100.00,SSE,160,1.0,2.0,91,0.00,,,0.18,25.000000,,2013-04-13 13:49:00,
2013-04-13 09:57:00,34.0,32.0,-100.00,SSE,160,1.0,2.0,91,0.00,,,0.18,25.000000,,2013-04-13 13:57:00,
2013-04-13 10:05:00,34.0,32.0,-100.00,SSE,160,1.0,2.0,91,0.00,,,0.18,25.000000,,2013-04-13 14:05:00,
2013-04-13 10:10:00,36.0,33.0,-100.00,NNE,19,1.0,3.0,89,0.01,,,0.19,47.000000,,2013-04-13 14:10:00,
2013-04-13 10:48:00,36.0,33.0,-100.00,NNE,19,1.0,3.0,89,0.01,,,0.19,47.000000,,2013-04-13 14:48:00,
2013-04-13 11:00:00,36.0,33.0,-100.00,NNE,19,1.0,3.0,89,0.01,,,0.19,47.000000,,2013-04-13 15:00:00,
2013-04-13 11:05:00,36.0,33.0,-100.00,NNE,19,1.0,3.0,89,0.01,,,0.19,47.000000,,2013-04-13 15:05:00,
2013-04-13 11:10:00,37.0,33.0,-100.00,East,94,1.0,2.0,86,0.02,,,-99.99,60.000000,,2013-04-13 15:10:00,
2013-04-13 11:45:00,37.0,33.0,-100.00,East,94,1.0,2.0,86,0.02,,,-99.99,60.000000,,2013-04-13 15:45:00,
2013-04-13 11:59:00,37.0,33.0,-100.00,East,94,1.0,2.0,86,0.02,,,-99.99,60.000000,,2013-04-13 15:59:00,
2013-04-13 12:08:00,37.0,33.0,-100.00,East,94,1.0,2.0,86,0.02,,,-99.99,60.000000,,2013-04-13 16:08:00,
2013-04-13 12:10:00,39.0,34.0,-100.00,SW,225,2.0,4.0,83,0.03,,,0.23,116.000000,,2013-04-13 16:10:00,
2013-04-13 12:37:00,39.0,34.0,-100.00,SW,225,2.0,4.0,83,0.03,,,0.23,116.000000,,2013-04-13 16:37:00,
2013-04-13 12:48:00,39.0,34.0,-100.00,SW,225,2.0,4.0,83,0.03,,,0.23,116.000000,,2013-04-13 16:48:00,
2013-04-13 13:08:00,39.0,34.0,-100.00,SW,225,2.0,4.0,83,0.03,,,0.23,116.000000,,2013-04-13 17:08:00,
2013-04-13 13:10:00,41.0,34.0,-100.00,SW,225,2.0,5.0,77,0.08,,,0.28,312.000000,,2013-04-13 17:10:00,
2013-04-13 13:38:00,41.0,34.0,-100.00,SW,225,2.0,5.0,77,0.08,,,0.28,312.000000,,2013-04-13 17:38:00,
2013-04-13 13:45:00,41.0,34.0,-100.00,SW,225,2.0,5.0,77,0.08,,,0.28,312.000000,,2013-04-13 17:45:00,
2013-04-13 14:04:00,41.0,34.0,-100.00,SW,225,2.0,5.0,77,0.08,,,0.28,312.000000,,2013-04-13 18:04:00,
2013-04-13 14:10:00,40.0,34.0,-100.00,SW,231,2.0,5.0,78,0.11,,,0.27,201.000000,,2013-04-13 18:10:00,
2013-04-13 14:33:00,40.0,34.0,-100.00,SW,231,2.0,5.0,78,0.11,,,0.27,201.000000,,2013-04-13 18:33:00,
2013-04-13 14:42:00,40.0,34.0,-100.00,SW,231,2.0,5.0,78,0.11,,,0.27,201.000000,,2013-04-13 18:42:00,
2013-04-13 14:53:00,40.0,34.0,-100.00,SW,231,2.0,5.0,78,0.11,,,0.27,201.000000,,2013-04-13 18:53:00,
2013-04-13 15:03:00,40.0,34.0,-100.00,SW,231,2.0,5.0,78,0.11,,,0.27,201.000000,,2013-04-13 19:03:00,
2013-04-13 15:10:00,43.0,37.0,-100.00,NE,51,2.0,5.0,80,0.03,,,0.28,233.000000,,2013-04-13 19:10:00,
2013-04-13 15:42:00,43.0,37.0,-100.00,NE,51,2.0,5.0,80,0.03,,,0.28,233.000000,,2013-04-13 19:42:00,
2013-04-13 15:53:00,43.0,37.0,-100.00,NE,51,2.0,5.0,80,0.03,,,0.28,233.000000,,2013-04-13 19:53:00,
2013-04-13 16:02:00,43.0,37.0,-100.00,NE,51,2.0,5.0,80,0.03,,,0.28,233.000000,,2013-04-13 20:02:00,
2013-04-13 16:10:00,47.0,36.0,-100.00,West,262,2.0,6.0,66,0.00,,,0.28,469.000000,,2013-04-13 20:10:00,
2013-04-13 16:32:00,47.0,36.0,-100.00,West,262,2.0,6.0,66,0.00,,,0.28,469.000000,,2013-04-13 20:32:00,
2013-04-13 16:42:00,47.0,36.0,-100.00,West,262,2.0,6.0,66,0.00,,,0.28,469.000000,,2013-04-13 20:42:00,
2013-04-13 16:53:00,47.0,36.0,-100.00,West,262,2.0,6.0,66,0.00,,,0.28,469.000000,,2013-04-13 20:53:00,
2013-04-13 17:02:00,47.0,36.0,-100.00,West,262,2.0,6.0,66,0.00,,,0.28,469.000000,,2013-04-13 21:02:00,
2013-04-13 17:10:00,44.0,34.0,-100.00,SW,216,2.0,6.0,68,0.00,,,0.28,188.000000,,2013-04-13 21:10:00,
2013-04-13 17:33:00,44.0,34.0,-100.00,SW,216,2.0,6.0,68,0.00,,,0.28,188.000000,,2013-04-13 21:33:00,
2013-04-13 17:43:00,44.0,34.0,-100.00,SW,216,2.0,6.0,68,0.00,,,0.28,188.000000,,2013-04-13 21:43:00,
2013-04-13 17:53:00,44.0,34.0,-100.00,SW,216,2.0,6.0,68,0.00,,,0.28,188.000000,,2013-04-13 21:53:00,
2013-04-13 18:03:00,44.0,34.0,-100.00,SW,216,2.0,6.0,68,0.00,,,0.28,188.000000,,2013-04-13 22:03:00,
2013-04-13 18:10:00,41.0,36.0,-100.00,SE,127,0.0,2.0,82,0.00,,,0.28,35.000000,,2013-04-13 22:10:00,
2013-04-13 18:33:00,41.0,36.0,-100.00,SE,127,0.0,2.0,82,0.00,,,0.28,35.000000,,2013-04-13 22:33:00,
2013-04-13 18:42:00,41.0,36.0,-100.00,SE,127,0.0,2.0,82,0.00,,,0.28,35.000000,,2013-04-13 22:42:00,
2013-04-13 18:53:00,41.0,36.0,-100.00,SE,127,0.0,2.0,82,0.00,,,0.28,35.000000,,2013-04-13 22:53:00,
2013-04-13 19:02:00,41.0,36.0,-100.00,SE,127,0.0,2.0,82,0.00,,,0.28,35.000000,,2013-04-13 23:02:00,
2013-04-13 19:10:00,38.0,35.0,-100.00,NE,42,1.0,2.0,89,0.00,,,0.28,9.000000,,2013-04-13 23:10:00,
2013-04-13 19:33:00,38.0,35.0,-100.00,NE,42,1.0,2.0,89,0.00,,,0.28,9.000000,,2013-04-13 23:33:00,
2013-04-13 19:43:00,38.0,35.0,-100.00,NE,42,1.0,2.0,89,0.00,,,0.28,9.000000,,2013-04-13 23:43:00,
2013-04-13 19:53:00,38.0,35.0,-100.00,NE,42,1.0,2.0,89,0.00,,,0.28,9.000000,,2013-04-13 23:53:00,
2013-04-13 20:03:00,38.0,35.0,-100.00,NE,42,1.0,2.0,89,0.00,,,0.28,9.000000,,2013-04-14 00:03:00,
2013-04-13 21:10:00,36.0,36.0,-100.00,WSW,243,0.0,3.0,100,-99.99,,,0.30,0.000000,,2013-04-14 01:10:00,
2013-04-13 21:43:00,36.0,36.0,-100.00,WSW,243,0.0,3.0,100,-99.99,,,0.30,0.000000,,2013-04-14 01:43:00,
2013-04-13 21:53:00,36.0,36.0,-100.00,WSW,243,0.0,3.0,100,-99.99,,,0.30,0.000000,,2013-04-14 01:53:00,
2013-04-13 22:02:00,36.0,36.0,-100.00,WSW,243,0.0,3.0,100,-99.99,,,0.30,0.000000,,2013-04-14 02:02:00,
2013-04-13 22:10:00,35.0,35.0,-100.00,NW,309,0.0,2.0,100,0.01,,,0.31,0.000000,,2013-04-14 02:10:00,
2013-04-13 22:33:00,35.0,35.0,-100.00,NW,309,0.0,2.0,100,0.01,,,0.31,0.000000,,2013-04-14 02:33:00,
2013-04-13 22:43:00,35.0,35.0,-100.00,NW,309,0.0,2.0,100,0.01,,,0.31,0.000000,,2013-04-14 02:43:00,
2013-04-13 22:53:00,35.0,35.0,-100.00,NW,309,0.0,2.0,100,0.01,,,0.31,0.000000,,2013-04-14 02:53:00,
2013-04-13 23:03:00,35.0,35.0,-100.00,NW,309,0.0,2.0,100,0.01,,,0.31,0.000000,,2013-04-14 03:03:00,
2013-04-13 23:10:00,35.0,35.0,-100.00,East,94,3.0,4.0,100,0.03,,,0.34,0.000000,,2013-04-14 03:10:00,
2013-04-13 23:43:00,35.0,35.0,-100.00,East,94,3.0,4.0,100,0.03,,,0.34,0.000000,,2013-04-14 03:43:00,
2013-04-13 23:53:00,35.0,35.0,-100.00,East,94,3.0,4.0,100,0.03,,,0.34,0.000000,,2013-04-14 03:53:00,